Latest Coastal Weather Observations for Orbost

IDV60701

Issued at 3:01 pm EST Sunday 24 May 2015 (issued every 10 minutes, with the page automatically refreshed every 10 minutes)

About coastal observations | Map of coastal stations | Coastal observations for VIC | Marine services | Other Formats
Station Details ID: 084145 Name: ORBOST Lat: -37.69 Lon: 148.47 Height: 62.65 m
Data from the previous 72 hours. | See also: Recent months at Orbost
Date/Time
EST
Temp

°C
Wind Pressure Rain
since 9am
mm
Weather Cloud Vis
km
Sea
Height
m
Swell
Dir
 
Speed
knots
Gust
knots
hPa Trend Height
m
Period
s
Dir
24/03:00pm 13.8 SSE 3 5 1030.1 - 0.0 - - - - - - -
24/02:30pm 14.5 SSE 2 5 1030.2 - 0.0 - - - - - - -
24/02:00pm 14.8 SE 2 4 1030.2 - 0.0 - - - - - - -
24/01:30pm 14.0 S 2 4 1030.5 - 0.0 - - - - - - -
24/01:00pm 13.8 S 3 6 1030.7 - 0.0 - - - - - - -
24/12:30pm 13.1 SSW 3 4 1030.9 - 0.0 - - - - - - -
24/12:00pm 12.5 SSE 2 4 1031.1 - 0.0 - - - - - - -
24/11:30am 12.0 WSW 2 3 1031.6 - 0.0 - - - - - - -
24/11:00am 11.7 WSW 1 3 1031.9 - 0.0 - - - - - - -
24/10:30am 10.1 W 2 3 1032.3 - 0.0 - - - - - - -
24/10:00am 9.5 W 2 3 1032.1 - 0.0 - - - - - - -
24/09:30am 8.2 W 1 2 1032.1 - 0.0 - - - - - - -
24/09:00am 7.1 CALM 0 1 1032.2 - 0.0 - - - - - - -
24/08:30am 5.4 WNW 1 2 1032.3 - 0.0 - - - - - - -
24/08:00am 4.4 WNW 1 2 1032.2 - 0.0 - - - - - - -
24/07:30am 4.3 NW 1 2 1031.8 - 0.0 - - - - - - -
24/07:00am 4.2 NNW 2 2 1031.8 - 0.0 - - - - - - -
24/06:30am 4.8 WNW 1 1 1031.4 - 0.0 - - - - - - -
24/06:00am 5.6 N 3 4 1031.2 - 0.0 - - - - - - -
24/05:30am 5.5 N 3 3 1031.1 - 0.0 - - - - - - -
24/05:00am 4.9 NNW 4 6 1031.1 - 0.0 - - - - - - -
24/04:30am 6.3 NNW 6 7 1031.0 - 0.0 - - - - - - -
24/04:00am 6.5 NW 3 5 1031.0 - 0.0 - - - - - - -
24/03:30am 7.3 N 5 7 1031.0 - 0.0 - - - - - - -
24/03:00am 7.6 NNW 3 7 1031.1 - 0.0 - - - - - - -
24/02:30am 7.6 NNW 4 5 1031.2 - 0.0 - - - - - - -
24/02:00am 7.4 NW 3 5 1031.2 - 0.0 - - - - - - -
24/01:30am 6.7 NW 3 4 1031.2 - 0.0 - - - - - - -
24/01:00am 7.0 NNW 4 5 1031.0 - 0.0 - - - - - - -
24/12:30am 5.5 NNW 4 5 1031.2 - 0.0 - - - - - - -
24/12:00am 5.7 NNW 3 4 1031.4 - 0.0 - - - - - - -
 
Date/Time
EST
Temp

°C
Wind Pressure Rain
since 9am
mm
Weather Cloud Vis
km
Sea
Height
m
Swell
Dir
 
Speed
knots
Gust
knots
hPa Trend Height
m
Period
s
Dir
23/11:30pm 6.3 NNW 5 6 1031.3 - 0.0 - - - - - - -
23/11:00pm 6.8 NNW 3 4 1031.3 - 0.0 - - - - - - -
23/10:30pm 7.2 N 4 5 1031.3 - 0.0 - - - - - - -
23/10:00pm 7.1 N 5 6 1031.4 - 0.0 - - - - - - -
23/09:30pm 6.9 NNW 4 4 1031.4 - 0.0 - - - - - - -
23/09:00pm 7.7 N 3 3 1031.3 - 0.0 - - - - - - -
23/08:30pm 8.0 N 4 5 1031.1 - 0.0 - - - - - - -
23/08:00pm 7.6 N 4 5 1031.1 - 0.0 - - - - - - -
23/07:30pm 7.9 N 4 5 1031.0 - 0.0 - - - - - - -
23/07:00pm 8.2 N 5 5 1030.8 - 0.0 - - - - - - -
23/06:30pm 8.4 N 4 5 1030.8 - 0.0 - - - - - - -
23/06:00pm 8.4 N 4 5 1030.7 - 0.0 - - - - - - -
23/05:30pm 7.9 N 2 2 1030.6 - 0.0 - - - - - - -
23/05:00pm 9.6 CALM 0 0 1030.6 - 0.0 - - - - - - -
23/04:30pm 11.4 WSW 2 4 1030.6 - 0.0 - - - - - - -
23/04:00pm 11.8 SW 4 6 1030.6 - 0.0 - - - - - - -
23/03:30pm 12.2 WSW 4 8 1030.5 - 0.0 - - - - - - -
23/03:00pm 12.2 SW 4 7 1030.5 - 0.0 - - - - - - -
23/02:30pm 12.4 WSW 5 8 1030.4 - 0.0 - - - - - - -
23/02:00pm 12.1 SW 6 9 1030.4 - 0.0 - - - - - - -
23/01:30pm 11.7 W 5 9 1030.6 - 0.0 - - - - - - -
23/01:00pm 11.3 W 8 11 1030.8 - 0.0 - - - - - - -
23/12:30pm 11.4 W 6 10 1031.2 - 0.0 - - - - - - -
23/12:00pm 11.1 WNW 7 11 1031.6 - 0.0 - - - - - - -
23/11:30am 10.9 WNW 9 14 1031.9 - 0.0 - - - - - - -
23/11:00am 10.9 NW 8 13 1032.1 - 0.0 - - - - - - -
23/10:30am 10.7 NW 7 11 1032.2 - 0.0 - - - - - - -
23/10:00am 10.4 NW 7 11 1032.2 - 0.0 - - - - - - -
23/09:30am 10.3 WNW 7 11 1032.2 - 0.0 - - - - - - -
23/09:00am 10.0 WNW 6 9 1032.1 - 0.2 - - - - - - -
23/08:30am 10.0 WNW 6 9 1032.0 - 0.2 - - - - - - -
23/08:00am 9.5 WNW 4 6 1031.9 - 0.2 - - - - - - -
23/07:30am 9.6 WNW 4 6 1031.6 - 0.2 - - - - - - -
23/07:00am 9.6 WNW 5 8 1031.4 - 0.2 - - - - - - -
23/06:30am 9.7 WNW 5 8 1031.1 - 0.2 - - - - - - -
23/06:00am 9.3 NW 3 5 1030.9 - 0.2 - - - - - - -
23/05:30am 9.2 NW 3 5 1030.7 - 0.2 - - - - - - -
23/05:00am 9.5 WNW 4 6 1030.6 - 0.2 - - - - - - -
23/04:30am 9.5 NW 5 7 1030.3 - 0.2 - - - - - - -
23/04:00am 9.3 NW 5 7 1030.2 - 0.2 - - - - - - -
23/03:30am 9.3 NNW 6 9 1030.2 - 0.2 - - - - - - -
23/03:00am 9.3 NW 6 9 1030.3 - 0.2 - - - - - - -
23/02:30am 9.3 NW 6 11 1030.4 - 0.2 - - - - - - -
23/02:00am 8.8 WNW 5 7 1030.5 - 0.2 - - - - - - -
23/01:30am 7.7 NW 4 7 1030.4 - 0.2 - - - - - - -
23/01:00am 8.0 NW 4 7 1030.5 - 0.2 - - - - - - -
23/12:30am 8.3 NW 4 7 1030.5 - 0.2 - - - - - - -
23/12:00am 9.1 WNW 4 7 1030.6 - 0.2 - - - - - - -
 
Date/Time
EST
Temp

°C
Wind Pressure Rain
since 9am
mm
Weather Cloud Vis
km
Sea
Height
m
Swell
Dir
 
Speed
knots
Gust
knots
hPa Trend Height
m
Period
s
Dir
22/11:30pm 9.5 W 5 7 1030.5 - 0.2 - - - - - - -
22/11:00pm 10.0 WNW 5 8 1030.3 - 0.2 - - - - - - -
22/10:30pm 10.3 WNW 5 8 1030.3 - 0.2 - - - - - - -
22/10:00pm 10.1 NW 4 6 1030.2 - 0.2 - - - - - - -
22/09:30pm 9.6 WNW 2 3 1030.0 - 0.0 - - - - - - -
22/09:00pm 10.4 NW 3 4 1029.8 - 0.0 - - - - - - -
22/08:30pm 9.5 NNW 4 5 1029.6 - 0.0 - - - - - - -
22/08:00pm 9.9 N 4 5 1029.6 - 0.0 - - - - - - -
22/07:30pm 9.9 N 4 5 1029.4 - 0.0 - - - - - - -
22/07:00pm 9.8 N 3 4 1029.4 - 0.0 - - - - - - -
22/06:30pm 9.9 N 3 3 1029.3 - 0.0 - - - - - - -
22/06:00pm 10.1 NNW 2 3 1029.2 - 0.0 - - - - - - -
22/05:30pm 10.3 NW 2 2 1029.1 - 0.0 - - - - - - -
22/05:00pm 10.9 WSW 1 2 1028.9 - 0.0 - - - - - - -
22/04:30pm 11.3 WSW 3 4 1028.8 - 0.0 - - - - - - -
22/04:00pm 12.5 WSW 4 6 1028.5 - 0.0 - - - - - - -
22/03:30pm 13.0 SW 6 8 1028.3 - 0.0 - - - - - - -
22/03:00pm 13.3 SW 8 11 1027.9 - 0.0 - - - - - - -
22/02:30pm 13.4 SSW 9 13 1027.5 - 0.0 - - - - - - -
22/02:00pm 13.5 SSW 7 11 1027.4 - 0.0 - - - - - - -
22/01:30pm 13.2 SW 7 11 1027.5 - 0.0 - - - - - - -
22/01:00pm 13.5 SSW 7 11 1027.5 - 0.0 - - - - - - -
22/12:30pm 13.5 SSW 8 12 1027.6 - 0.0 - - - - - - -
22/12:00pm 13.4 SSW 7 13 1027.8 - 0.0 - - - - - - -
22/11:30am 13.0 SSW 9 15 1028.2 - 0.0 - - - - - - -
22/11:00am 12.9 SSW 7 11 1028.5 - 0.0 - - - - - - -
22/10:30am 12.7 SSW 8 13 1028.4 - 0.0 - - - - - - -
22/10:00am 12.6 WSW 4 5 1028.2 - 0.0 - - - - - - -
22/09:30am 12.2 W 4 6 1027.9 - 0.0 - - - - - - -
22/09:00am 12.5 SW 4 6 1027.7 - 7.2 Recent precip. - - - - - -
22/08:30am 12.2 SSW 8 11 1027.5 - 7.0 - - - - - - -
22/08:00am 10.8 CALM 0 2 1027.1 - 7.0 - - - - - - -
22/07:30am 10.3 N 3 4 1026.6 - 7.0 - - - - - - -
22/07:00am 9.7 NNW 3 3 1026.3 - 7.0 - - - - - - -
22/06:30am 9.4 NNW 2 3 1025.9 - 7.0 - - - - - - -
22/06:00am 10.0 N 2 2 1025.6 - 7.0 - - - - - - -
22/05:30am 9.7 NW 2 3 1025.3 - 7.0 - - - - - - -
22/05:00am 9.8 N 3 3 1025.2 - 7.0 - - - - - - -
22/04:30am 9.9 N 1 2 1025.0 - 7.0 - - - - - - -
22/04:00am 9.5 NNW 2 2 1024.9 - 7.0 - - - - - - -
22/03:30am 9.7 NNW 2 2 1024.8 - 7.0 - - - - - - -
22/03:00am 9.3 CALM 0 0 1024.9 - 7.0 - - - - - - -
22/02:30am 11.1 SE 1 2 1024.9 - 7.0 - - - - - - -
22/02:00am 11.7 SSE 1 3 1024.8 - 7.0 - - - - - - -
22/01:30am 12.1 SSE 2 5 1024.6 - 7.0 - - - - - - -
22/01:00am 11.6 CALM 0 2 1024.5 - 7.0 - - - - - - -
22/12:30am 11.8 ESE 2 5 1024.4 - 7.0 - - - - - - -
22/12:00am 11.9 NE 2 4 1024.4 - 7.0 Rain - - - - - -
 
Date/Time
EST
Temp

°C
Wind Pressure Rain
since 9am
mm
Weather Cloud Vis
km
Sea
Height
m
Swell
Dir
 
Speed
knots
Gust
knots
hPa Trend Height
m
Period
s
Dir
21/11:30pm 11.7 ESE 2 5 1024.5 - 6.6 - - - - - - -
21/11:00pm 10.9 N 1 2 1024.5 - 3.2 - - - - - - -
21/10:30pm 10.8 CALM 0 0 1024.4 - 2.6 - - - - - - -
21/10:00pm 10.7 CALM 0 0 1024.4 - 2.4 - - - - - - -
21/09:30pm 10.9 CALM 0 2 1024.3 - 2.4 - - - - - - -
21/09:00pm 10.9 WNW 1 2 1024.0 - 2.4 Rain - - - - - -
21/08:30pm 10.9 WNW 2 2 1023.9 - 1.8 - - - - - - -
21/08:00pm 11.0 CALM 0 0 1023.7 - 1.6 - - - - - - -
21/07:30pm 11.1 NNW 2 4 1023.4 - 1.4 - - - - - - -
21/07:00pm 11.1 NW 3 4 1023.3 - 1.2 - - - - - - -
21/06:30pm 11.0 NNW 3 4 1023.0 - 1.2 - - - - - - -
21/06:00pm 11.1 NNW 4 6 1022.8 - 1.2 - - - - - - -
21/05:30pm 11.1 NW 3 5 1022.6 - 1.2 - - - - - - -
21/05:00pm 11.1 NW 3 5 1022.2 - 1.2 - - - - - - -
21/04:30pm 11.2 WNW 4 5 1022.0 - 1.2 - - - - - - -
21/04:00pm 11.3 WNW 4 7 1021.9 - 1.2 - - - - - - -
21/03:30pm 11.2 W 5 8 1021.6 - 1.2 - - - - - - -

Other Formats:

Comma delimited format used in spreadsheet applications
http://www.bom.gov.au/fwo/IDV60701/IDV60701.95918.axf

JavaScript Object Notation format (JSON) in row-major order
http://www.bom.gov.au/fwo/IDV60701/IDV60701.95918.json